KSLI

Los Alamitos AAF Airport

Los Alamitos, California, USA
METAR KSLI 191458Z 08004KT 5SM BR OVC020 13/12 A3002 RMK AO2A SLP169 T01320122 53003
Observed Flight Rules
Jan-19 @ 14:58 UTC (23 minutes ago) Marginal Visual Flight Rules
Wind Visibility Clouds Conditions
80° at 4 knots 5 miles
  • Overcast at 2,000' AGL
  • Mist
Temperatures Readings
Current 13°C / 55°F
Dewpoint 12°C / 54°F
Humidity 94%
Altimeter 30.02" Hg
Pressure 1016.9 hPa
Elevation 11
METAR KSLI 191458Z 08004KT 5SM BR OVC020 13/12 A3002 RMK AO2A SLP169 T01320122 53003
Observed Flight Rules
Jan-19 @ 14:58 UTC
(23 minutes ago)
MVFR
Wind Visibility
80° at 4 knots 5 miles
Clouds
  • Overcast at 2,000' AGL
Conditions
  • Mist
Temperature Dewpoint
13°C / 55°F 12°C / 54°F
Humidity Altimeter Pressure
94% 30.02" Hg 1016.9 hPa